sensor_id;sensor_type;location;lat;lon;timestamp;pressure;altitude;pressure_sealevel;temperature;humidity
22775;BME280;11554;51.106;3.684;2023-01-30T00:00:00;102043.19;;;4.93;100.0
22775;BME280;11554;51.106;3.684;2023-01-30T00:05:00;102040.20000000001;;;4.93;100.0
22775;BME280;11554;51.106;3.684;2023-01-30T00:10:00;102043.2;;;4.92;100.0
22775;BME280;11554;51.106;3.684;2023-01-30T00:15:00;102024.42;;;4.93;100.0
22775;BME280;11554;51.106;3.684;2023-01-30T00:20:00;102003.63;;;4.87;100.0
22775;BME280;11554;51.106;3.684;2023-01-30T00:25:00;101990.72;;;4.84;100.0
22775;BME280;11554;51.106;3.684;2023-01-30T00:30:00;102015.18;;;4.84;100.0
22775;BME280;11554;51.106;3.684;2023-01-30T00:35:00;102019.55;;;4.86;100.0
22775;BME280;11554;51.106;3.684;2023-01-30T00:40:00;102027.07;;;4.91;100.0
22775;BME280;11554;51.106;3.684;2023-01-30T00:45:00;102029.61;;;4.96;100.0
22775;BME280;11554;51.106;3.684;2023-01-30T00:50:00;102045.26;;;4.97;100.0
22775;BME280;11554;51.106;3.684;2023-01-30T00:55:00;102045.58;;;4.99;100.0
22775;BME280;11554;51.106;3.684;2023-01-30T01:00:00;102031.89;;;4.99;100.0
22775;BME280;11554;51.106;3.684;2023-01-30T01:05:00;102034.5;;;5.06;100.0
22775;BME280;11554;51.106;3.684;2023-01-30T01:10:00;102013.64;;;5.12;100.0
22775;BME280;11554;51.106;3.684;2023-01-30T01:15:00;102001.73;;;5.11;100.0
22775;BME280;11554;51.106;3.684;2023-01-30T01:20:00;101993.95;;;5.13;100.0
22775;BME280;11554;51.106;3.684;2023-01-30T01:25:00;102007.7;;;5.15;100.0
22775;BME280;11554;51.106;3.684;2023-01-30T01:30:00;102007.82;;;5.19;100.0
22775;BME280;11554;51.106;3.684;2023-01-30T01:35:00;102004.02;;;5.19;100.0
22775;BME280;11554;51.106;3.684;2023-01-30T01:40:00;102002.29000000001;;;5.25;100.0
22775;BME280;11554;51.106;3.684;2023-01-30T01:45:03;101997.43999999999;;;5.28;100.0
22775;BME280;11554;51.106;3.684;2023-01-30T01:50:00;102001.21;;;5.32;100.0
22775;BME280;11554;51.106;3.684;2023-01-30T01:55:01;101988.09;;;5.35;100.0
22775;BME280;11554;51.106;3.684;2023-01-30T02:00:02;101981.31;;;5.39;100.0
22775;BME280;11554;51.106;3.684;2023-01-30T02:05:00;101962.08;;;5.45;100.0
22775;BME280;11554;51.106;3.684;2023-01-30T02:10:00;101943.25;;;5.43;100.0
22775;BME280;11554;51.106;3.684;2023-01-30T02:15:00;101935.69;;;5.32;100.0
22775;BME280;11554;51.106;3.684;2023-01-30T02:20:02;101934.39;;;5.21;100.0
22775;BME280;11554;51.106;3.684;2023-01-30T02:30:08;101933.39;;;5.11;100.0
22775;BME280;11554;51.106;3.684;2023-01-30T02:35:02;101916.74;;;5.14;100.0
22775;BME280;11554;51.106;3.684;2023-01-30T02:40:04;101914.87;;;5.22;100.0
22775;BME280;11554;51.106;3.684;2023-01-30T02:45:00;101931.56;;;5.29;100.0
22775;BME280;11554;51.106;3.684;2023-01-30T02:50:01;101932.18000000001;;;5.43;100.0
22775;BME280;11554;51.106;3.684;2023-01-30T02:55:05;101922.97;;;5.49;100.0
22775;BME280;11554;51.106;3.684;2023-01-30T03:00:00;101918.12999999999;;;5.59;100.0
22775;BME280;11554;51.106;3.684;2023-01-30T03:05:06;101906.62999999999;;;5.64;100.0
22775;BME280;11554;51.106;3.684;2023-01-30T03:10:01;101906.34;;;5.69;100.0
22775;BME280;11554;51.106;3.684;2023-01-30T03:15:02;101904.06;;;5.70;100.0
22775;BME280;11554;51.106;3.684;2023-01-30T03:20:00;101907.62;;;5.70;100.0
22775;BME280;11554;51.106;3.684;2023-01-30T03:25:00;101918.66;;;5.72;100.0
22775;BME280;11554;51.106;3.684;2023-01-30T03:30:00;101911.39;;;5.75;100.0
22775;BME280;11554;51.106;3.684;2023-01-30T03:35:00;101903.92;;;5.76;100.0
22775;BME280;11554;51.106;3.684;2023-01-30T03:40:00;101906.06;;;5.79;100.0
22775;BME280;11554;51.106;3.684;2023-01-30T03:45:00;101901.18;;;5.83;100.0
22775;BME280;11554;51.106;3.684;2023-01-30T03:50:00;101903.39;;;5.84;100.0
22775;BME280;11554;51.106;3.684;2023-01-30T03:55:00;101905.59;;;5.90;100.0
22775;BME280;11554;51.106;3.684;2023-01-30T04:00:00;101919.31;;;5.90;100.0
22775;BME280;11554;51.106;3.684;2023-01-30T04:05:00;101908.45000000001;;;5.93;100.0
22775;BME280;11554;51.106;3.684;2023-01-30T04:10:00;101902.58;;;5.94;100.0
22775;BME280;11554;51.106;3.684;2023-01-30T04:15:00;101900.27;;;5.96;100.0
22775;BME280;11554;51.106;3.684;2023-01-30T04:20:00;101886.08;;;6.01;100.0
22775;BME280;11554;51.106;3.684;2023-01-30T04:25:00;101891.78;;;6.03;100.0
22775;BME280;11554;51.106;3.684;2023-01-30T04:30:00;101891.81999999999;;;6.05;100.0
22775;BME280;11554;51.106;3.684;2023-01-30T04:35:00;101896.09;;;6.07;100.0
22775;BME280;11554;51.106;3.684;2023-01-30T04:40:00;101892.92;;;6.12;100.0
22775;BME280;11554;51.106;3.684;2023-01-30T04:45:00;101883.18000000001;;;6.16;100.0
22775;BME280;11554;51.106;3.684;2023-01-30T04:50:00;101884.0;;;6.17;100.0
22775;BME280;11554;51.106;3.684;2023-01-30T04:55:00;101898.92;;;6.19;100.0
22775;BME280;11554;51.106;3.684;2023-01-30T05:00:00;101906.23000000001;;;6.19;100.0
22775;BME280;11554;51.106;3.684;2023-01-30T05:05:00;101907.95000000001;;;6.22;100.0
22775;BME280;11554;51.106;3.684;2023-01-30T05:10:00;101906.18;;;6.25;100.0
22775;BME280;11554;51.106;3.684;2023-01-30T05:15:00;101909.25;;;6.28;100.0
22775;BME280;11554;51.106;3.684;2023-01-30T05:20:00;101915.66;;;6.31;100.0
22775;BME280;11554;51.106;3.684;2023-01-30T05:25:00;101912.28;;;6.37;100.0
22775;BME280;11554;51.106;3.684;2023-01-30T05:30:00;101928.91;;;6.43;100.0
22775;BME280;11554;51.106;3.684;2023-01-30T05:35:00;101934.53;;;6.45;100.0
22775;BME280;11554;51.106;3.684;2023-01-30T05:40:00;101941.94;;;6.51;100.0
22775;BME280;11554;51.106;3.684;2023-01-30T05:45:00;101929.24;;;6.58;100.0
22775;BME280;11554;51.106;3.684;2023-01-30T05:50:00;101925.3;;;6.61;100.0
22775;BME280;11554;51.106;3.684;2023-01-30T05:55:00;101943.72;;;6.68;100.0
22775;BME280;11554;51.106;3.684;2023-01-30T06:00:00;101932.14;;;6.73;100.0
22775;BME280;11554;51.106;3.684;2023-01-30T06:05:00;101947.77;;;6.76;100.0
22775;BME280;11554;51.106;3.684;2023-01-30T06:10:00;101953.77;;;6.76;100.0
22775;BME280;11554;51.106;3.684;2023-01-30T06:15:00;101952.59;;;6.76;100.0
22775;BME280;11554;51.106;3.684;2023-01-30T06:20:00;101959.16;;;6.81;100.0
22775;BME280;11554;51.106;3.684;2023-01-30T06:25:00;101959.44;;;6.78;100.0
22775;BME280;11554;51.106;3.684;2023-01-30T06:30:00;101961.19;;;6.77;100.0
22775;BME280;11554;51.106;3.684;2023-01-30T06:35:00;101969.78;;;6.74;100.0
22775;BME280;11554;51.106;3.684;2023-01-30T06:40:00;101970.56;;;6.74;100.0
22775;BME280;11554;51.106;3.684;2023-01-30T06:45:00;101980.58;;;6.71;100.0
22775;BME280;11554;51.106;3.684;2023-01-30T06:50:00;101979.02;;;6.68;100.0
22775;BME280;11554;51.106;3.684;2023-01-30T06:55:00;101979.21;;;6.67;100.0
22775;BME280;11554;51.106;3.684;2023-01-30T07:00:00;101981.02;;;6.60;100.0
22775;BME280;11554;51.106;3.684;2023-01-30T07:05:00;101984.09;;;6.47;100.0
22775;BME280;11554;51.106;3.684;2023-01-30T07:10:00;101988.98000000001;;;6.34;100.0
22775;BME280;11554;51.106;3.684;2023-01-30T07:15:00;101986.14;;;6.28;100.0
22775;BME280;11554;51.106;3.684;2023-01-30T07:20:00;102003.95999999999;;;6.16;100.0
22775;BME280;11554;51.106;3.684;2023-01-30T07:25:00;102001.67;;;6.03;100.0
22775;BME280;11554;51.106;3.684;2023-01-30T07:30:00;102008.75;;;5.94;100.0
22775;BME280;11554;51.106;3.684;2023-01-30T07:35:00;102017.58;;;5.89;100.0
22775;BME280;11554;51.106;3.684;2023-01-30T07:40:00;102031.02;;;5.78;100.0
22775;BME280;11554;51.106;3.684;2023-01-30T07:45:00;102055.12999999999;;;5.72;100.0
22775;BME280;11554;51.106;3.684;2023-01-30T07:50:00;102069.69;;;5.59;100.0
22775;BME280;11554;51.106;3.684;2023-01-30T07:55:00;102064.81999999999;;;5.48;100.0
22775;BME280;11554;51.106;3.684;2023-01-30T08:00:00;102055.35;;;5.39;100.0
22775;BME280;11554;51.106;3.684;2023-01-30T08:05:00;102054.3;;;5.38;100.0
22775;BME280;11554;51.106;3.684;2023-01-30T08:10:00;102056.43;;;5.43;100.0
22775;BME280;11554;51.106;3.684;2023-01-30T08:15:00;102048.06999999999;;;5.47;100.0
22775;BME280;11554;51.106;3.684;2023-01-30T08:20:00;102064.62;;;5.55;100.0
22775;BME280;11554;51.106;3.684;2023-01-30T08:25:00;102068.98;;;5.64;100.0
22775;BME280;11554;51.106;3.684;2023-01-30T08:30:00;102074.17;;;5.72;100.0
22775;BME280;11554;51.106;3.684;2023-01-30T08:35:00;102078.3;;;5.77;100.0
22775;BME280;11554;51.106;3.684;2023-01-30T08:40:00;102085.46;;;5.80;100.0
22775;BME280;11554;51.106;3.684;2023-01-30T08:45:00;102093.19;;;5.80;100.0
22775;BME280;11554;51.106;3.684;2023-01-30T08:50:00;102098.83;;;5.87;100.0
22775;BME280;11554;51.106;3.684;2023-01-30T08:55:00;102094.65;;;5.98;100.0
22775;BME280;11554;51.106;3.684;2023-01-30T09:00:00;102100.35;;;6.05;100.0
22775;BME280;11554;51.106;3.684;2023-01-30T09:05:00;102111.86;;;6.13;100.0
22775;BME280;11554;51.106;3.684;2023-01-30T09:10:00;102126.84000000001;;;6.22;100.0
22775;BME280;11554;51.106;3.684;2023-01-30T09:15:00;102122.34;;;6.34;100.0
22775;BME280;11554;51.106;3.684;2023-01-30T09:20:00;102125.98000000001;;;6.45;100.0
22775;BME280;11554;51.106;3.684;2023-01-30T09:25:00;102123.64;;;6.61;100.0
22775;BME280;11554;51.106;3.684;2023-01-30T09:30:00;102117.21;;;6.72;99.33
22775;BME280;11554;51.106;3.684;2023-01-30T09:35:00;102120.83;;;6.82;99.03
22775;BME280;11554;51.106;3.684;2023-01-30T09:40:00;102127.72;;;6.95;99.19
22775;BME280;11554;51.106;3.684;2023-01-30T09:45:02;102144.29000000001;;;7.09;98.95
22775;BME280;11554;51.106;3.684;2023-01-30T09:50:01;102156.67;;;7.24;98.59
22775;BME280;11554;51.106;3.684;2023-01-30T09:55:01;102148.72;;;7.35;97.71
22775;BME280;11554;51.106;3.684;2023-01-30T10:00:01;102156.95;;;7.41;96.17
22775;BME280;11554;51.106;3.684;2023-01-30T10:05:00;102160.78;;;7.55;95.24
22775;BME280;11554;51.106;3.684;2023-01-30T10:10:02;102163.87;;;7.64;95.28
22775;BME280;11554;51.106;3.684;2023-01-30T10:15:04;102161.78;;;7.81;95.51
22775;BME280;11554;51.106;3.684;2023-01-30T10:20:03;102169.98;;;7.90;93.6
22775;BME280;11554;51.106;3.684;2023-01-30T10:25:03;102172.02;;;8.02;94.23
22775;BME280;11554;51.106;3.684;2023-01-30T10:30:01;102184.06;;;8.10;93.54
22775;BME280;11554;51.106;3.684;2023-01-30T10:35:03;102194.42;;;8.30;93.61
22775;BME280;11554;51.106;3.684;2023-01-30T10:40:02;102198.0;;;8.20;92.14
22775;BME280;11554;51.106;3.684;2023-01-30T10:45:01;102208.09000000001;;;8.30;93.48
22775;BME280;11554;51.106;3.684;2023-01-30T10:50:02;102210.77;;;8.46;91.88
22775;BME280;11554;51.106;3.684;2023-01-30T10:55:03;102214.33;;;8.51;91.13
22775;BME280;11554;51.106;3.684;2023-01-30T11:00:01;102224.89;;;8.65;91.36
22775;BME280;11554;51.106;3.684;2023-01-30T11:05:01;102223.33;;;8.69;90.17
22775;BME280;11554;51.106;3.684;2023-01-30T11:10:00;102230.7;;;8.78;89.74
22775;BME280;11554;51.106;3.684;2023-01-30T11:15:00;102235.99;;;8.91;89.33
22775;BME280;11554;51.106;3.684;2023-01-30T11:20:02;102226.07;;;9.01;89.7
22775;BME280;11554;51.106;3.684;2023-01-30T11:25:02;102224.95999999999;;;8.91;90.68
22775;BME280;11554;51.106;3.684;2023-01-30T11:30:02;102226.51;;;9.02;89.21
22775;BME280;11554;51.106;3.684;2023-01-30T11:35:02;102215.98;;;9.19;90.1
22775;BME280;11554;51.106;3.684;2023-01-30T11:40:06;102214.89;;;9.10;89.32
22775;BME280;11554;51.106;3.684;2023-01-30T11:45:00;102211.29;;;9.29;88.57
22775;BME280;11554;51.106;3.684;2023-01-30T11:50:00;102207.37000000001;;;9.39;89.71
22775;BME280;11554;51.106;3.684;2023-01-30T11:55:01;102205.9;;;9.33;89.62
22775;BME280;11554;51.106;3.684;2023-01-30T12:00:00;102221.19;;;9.41;87.95
22775;BME280;11554;51.106;3.684;2023-01-30T12:05:01;102207.98;;;9.26;86.49
22775;BME280;11554;51.106;3.684;2023-01-30T12:10:00;102209.42;;;9.33;86.42
22775;BME280;11554;51.106;3.684;2023-01-30T12:20:01;102213.84000000001;;;9.49;85.97
22775;BME280;11554;51.106;3.684;2023-01-30T12:25:00;102217.22;;;9.71;86.88
22775;BME280;11554;51.106;3.684;2023-01-30T12:30:03;102219.05;;;9.48;85.51
22775;BME280;11554;51.106;3.684;2023-01-30T12:35:00;102219.75;;;9.24;87.41
22775;BME280;11554;51.106;3.684;2023-01-30T12:40:02;102207.31;;;9.53;86.54
22775;BME280;11554;51.106;3.684;2023-01-30T12:45:05;102208.5;;;9.61;86.47
22775;BME280;11554;51.106;3.684;2023-01-30T12:50:04;102205.38;;;9.88;86.79
22775;BME280;11554;51.106;3.684;2023-01-30T12:55:01;102215.23999999999;;;9.71;86.17
22775;BME280;11554;51.106;3.684;2023-01-30T13:00:03;102223.33;;;9.67;85.92
22775;BME280;11554;51.106;3.684;2023-01-30T13:05:05;102214.93000000001;;;10.01;87.35
22775;BME280;11554;51.106;3.684;2023-01-30T13:10:02;102225.7;;;9.69;85.34
22775;BME280;11554;51.106;3.684;2023-01-30T13:15:02;102227.71;;;9.90;87.05
22775;BME280;11554;51.106;3.684;2023-01-30T13:20:02;102222.29;;;9.76;87.35
22775;BME280;11554;51.106;3.684;2023-01-30T13:25:02;102221.28;;;9.71;87.87
22775;BME280;11554;51.106;3.684;2023-01-30T13:30:00;102226.08;;;9.69;86.49
22775;BME280;11554;51.106;3.684;2023-01-30T13:35:00;102234.75;;;9.58;86.91
22775;BME280;11554;51.106;3.684;2023-01-30T13:40:02;102229.52;;;9.80;87.92
22775;BME280;11554;51.106;3.684;2023-01-30T13:45:00;102232.23000000001;;;9.85;87.5
22775;BME280;11554;51.106;3.684;2023-01-30T13:50:05;102222.27;;;9.78;86.42
22775;BME280;11554;51.106;3.684;2023-01-30T13:55:02;102235.17;;;9.69;86.75
22775;BME280;11554;51.106;3.684;2023-01-30T14:00:08;102220.65;;;9.55;86.79
22775;BME280;11554;51.106;3.684;2023-01-30T14:05:00;102243.4;;;9.48;86.4
22775;BME280;11554;51.106;3.684;2023-01-30T14:10:05;102255.9;;;9.34;86.2
22775;BME280;11554;51.106;3.684;2023-01-30T14:15:01;102262.23999999999;;;9.47;86.93
22775;BME280;11554;51.106;3.684;2023-01-30T14:20:01;102285.79999999999;;;9.40;86.55
22775;BME280;11554;51.106;3.684;2023-01-30T14:30:00;102292.02;;;9.15;86.57
22775;BME280;11554;51.106;3.684;2023-01-30T14:40:00;102308.23000000001;;;8.94;87.08
22775;BME280;11554;51.106;3.684;2023-01-30T14:45:01;102309.52;;;8.91;87.84
22775;BME280;11554;51.106;3.684;2023-01-30T14:50:00;102312.23;;;8.75;87.25
22775;BME280;11554;51.106;3.684;2023-01-30T14:55:00;102321.5;;;8.64;87.9
22775;BME280;11554;51.106;3.684;2023-01-30T15:00:03;102326.9;;;8.59;88.19
22775;BME280;11554;51.106;3.684;2023-01-30T15:05:02;102328.59;;;8.43;88.64
22775;BME280;11554;51.106;3.684;2023-01-30T15:10:00;102336.06;;;8.23;88.52
22775;BME280;11554;51.106;3.684;2023-01-30T15:15:02;102349.23999999999;;;8.13;89.66
22775;BME280;11554;51.106;3.684;2023-01-30T15:20:04;102358.51;;;7.96;89.05
22775;BME280;11554;51.106;3.684;2023-01-30T15:25:08;102369.48999999999;;;7.85;89.18
22775;BME280;11554;51.106;3.684;2023-01-30T15:30:03;102372.19;;;7.75;89.82
22775;BME280;11554;51.106;3.684;2023-01-30T15:35:01;102381.26999999999;;;7.55;90.39
22775;BME280;11554;51.106;3.684;2023-01-30T15:40:09;102390.52;;;7.37;91.72
22775;BME280;11554;51.106;3.684;2023-01-30T15:45:00;102398.36;;;7.14;92.43
22775;BME280;11554;51.106;3.684;2023-01-30T15:50:00;102406.70999999999;;;6.93;92.97
22775;BME280;11554;51.106;3.684;2023-01-30T15:55:00;102408.59;;;6.73;93.84
22775;BME280;11554;51.106;3.684;2023-01-30T16:00:00;102415.86;;;6.63;94.29
22775;BME280;11554;51.106;3.684;2023-01-30T16:05:05;102424.07;;;6.59;95.05
22775;BME280;11554;51.106;3.684;2023-01-30T16:10:00;102430.90999999999;;;6.61;95.36
22775;BME280;11554;51.106;3.684;2023-01-30T16:15:00;102444.07;;;6.64;95.58
22775;BME280;11554;51.106;3.684;2023-01-30T16:20:00;102449.72;;;6.59;95.81
22775;BME280;11554;51.106;3.684;2023-01-30T16:25:00;102460.78;;;6.47;96.41
22775;BME280;11554;51.106;3.684;2023-01-30T16:30:03;102470.46;;;6.42;96.78
22775;BME280;11554;51.106;3.684;2023-01-30T16:40:02;102470.25000000001;;;6.21;97.35
22775;BME280;11554;51.106;3.684;2023-01-30T16:45:09;102482.37;;;5.97;97.41
22775;BME280;11554;51.106;3.684;2023-01-30T16:50:00;102494.08;;;5.72;98.13
22775;BME280;11554;51.106;3.684;2023-01-30T16:55:01;102501.77;;;5.64;99.14
22775;BME280;11554;51.106;3.684;2023-01-30T17:00:01;102506.96;;;5.59;99.5
22775;BME280;11554;51.106;3.684;2023-01-30T17:10:00;102518.35;;;5.47;100.0
22775;BME280;11554;51.106;3.684;2023-01-30T17:20:00;102537.29000000001;;;5.40;100.0
22775;BME280;11554;51.106;3.684;2023-01-30T17:25:00;102544.41999999998;;;5.42;100.0
22775;BME280;11554;51.106;3.684;2023-01-30T17:30:00;102549.62000000001;;;5.38;100.0
22775;BME280;11554;51.106;3.684;2023-01-30T17:35:00;102564.45000000001;;;5.35;100.0
22775;BME280;11554;51.106;3.684;2023-01-30T17:40:00;102569.74;;;5.35;100.0
22775;BME280;11554;51.106;3.684;2023-01-30T17:45:00;102574.44;;;5.35;100.0
22775;BME280;11554;51.106;3.684;2023-01-30T17:50:00;102576.14000000001;;;5.33;100.0
22775;BME280;11554;51.106;3.684;2023-01-30T17:55:00;102580.54;;;5.29;100.0
22775;BME280;11554;51.106;3.684;2023-01-30T18:00:00;102589.34;;;5.26;100.0
22775;BME280;11554;51.106;3.684;2023-01-30T18:05:00;102601.20999999999;;;5.23;100.0
22775;BME280;11554;51.106;3.684;2023-01-30T18:10:00;102603.37;;;5.18;100.0
22775;BME280;11554;51.106;3.684;2023-01-30T18:15:00;102608.33;;;5.15;100.0
22775;BME280;11554;51.106;3.684;2023-01-30T18:20:00;102602.73;;;5.12;100.0
22775;BME280;11554;51.106;3.684;2023-01-30T18:25:00;102601.99;;;5.08;100.0
22775;BME280;11554;51.106;3.684;2023-01-30T18:30:00;102613.70999999999;;;5.08;100.0
22775;BME280;11554;51.106;3.684;2023-01-30T18:35:00;102615.34;;;5.09;100.0
22775;BME280;11554;51.106;3.684;2023-01-30T18:40:00;102630.36;;;5.09;100.0
22775;BME280;11554;51.106;3.684;2023-01-30T18:45:00;102639.1;;;5.09;100.0
22775;BME280;11554;51.106;3.684;2023-01-30T18:50:00;102643.65000000001;;;5.00;100.0
22775;BME280;11554;51.106;3.684;2023-01-30T18:55:00;102657.62999999999;;;4.96;100.0
22775;BME280;11554;51.106;3.684;2023-01-30T19:00:00;102655.9;;;4.95;100.0
22775;BME280;11554;51.106;3.684;2023-01-30T19:05:00;102660.70999999999;;;4.87;100.0
22775;BME280;11554;51.106;3.684;2023-01-30T19:10:00;102670.20999999999;;;4.79;100.0
22775;BME280;11554;51.106;3.684;2023-01-30T19:15:00;102679.68000000001;;;4.78;100.0
22775;BME280;11554;51.106;3.684;2023-01-30T19:20:00;102687.01000000001;;;4.75;100.0
22775;BME280;11554;51.106;3.684;2023-01-30T19:25:00;102696.12999999999;;;4.65;100.0
22775;BME280;11554;51.106;3.684;2023-01-30T19:30:00;102701.12;;;4.64;100.0
22775;BME280;11554;51.106;3.684;2023-01-30T19:35:00;102701.01;;;4.64;100.0
22775;BME280;11554;51.106;3.684;2023-01-30T19:40:00;102706.79000000001;;;4.64;100.0
22775;BME280;11554;51.106;3.684;2023-01-30T19:45:00;102710.05;;;4.63;100.0
22775;BME280;11554;51.106;3.684;2023-01-30T19:50:00;102701.56;;;4.48;100.0
22775;BME280;11554;51.106;3.684;2023-01-30T19:55:00;102705.62;;;4.39;100.0
22775;BME280;11554;51.106;3.684;2023-01-30T20:00:00;102699.1;;;4.26;100.0
22775;BME280;11554;51.106;3.684;2023-01-30T20:05:00;102698.45;;;4.12;100.0
22775;BME280;11554;51.106;3.684;2023-01-30T20:10:00;102711.17;;;4.02;100.0
22775;BME280;11554;51.106;3.684;2023-01-30T20:15:00;102706.64;;;3.89;100.0
22775;BME280;11554;51.106;3.684;2023-01-30T20:20:00;102707.06999999999;;;3.71;100.0
22775;BME280;11554;51.106;3.684;2023-01-30T20:25:00;102703.53;;;3.54;100.0
22775;BME280;11554;51.106;3.684;2023-01-30T20:30:00;102706.54;;;3.40;100.0
22775;BME280;11554;51.106;3.684;2023-01-30T20:35:00;102701.55;;;3.25;100.0
22775;BME280;11554;51.106;3.684;2023-01-30T20:40:00;102699.37;;;3.13;100.0
22775;BME280;11554;51.106;3.684;2023-01-30T20:45:00;102688.29000000001;;;3.05;100.0
22775;BME280;11554;51.106;3.684;2023-01-30T20:50:00;102691.41;;;2.94;100.0
22775;BME280;11554;51.106;3.684;2023-01-30T20:55:00;102690.24999999999;;;2.92;100.0
22775;BME280;11554;51.106;3.684;2023-01-30T21:00:00;102697.0;;;3.00;100.0
22775;BME280;11554;51.106;3.684;2023-01-30T21:05:00;102697.84;;;2.91;100.0
22775;BME280;11554;51.106;3.684;2023-01-30T21:10:00;102691.68999999999;;;2.89;100.0
22775;BME280;11554;51.106;3.684;2023-01-30T21:15:00;102691.76;;;3.04;100.0
22775;BME280;11554;51.106;3.684;2023-01-30T21:20:00;102691.15;;;3.26;100.0
22775;BME280;11554;51.106;3.684;2023-01-30T21:25:00;102687.66;;;3.31;100.0
22775;BME280;11554;51.106;3.684;2023-01-30T21:30:00;102693.76;;;3.39;100.0
22775;BME280;11554;51.106;3.684;2023-01-30T21:35:00;102691.00000000001;;;3.42;100.0
22775;BME280;11554;51.106;3.684;2023-01-30T21:40:00;102684.44;;;3.40;100.0
22775;BME280;11554;51.106;3.684;2023-01-30T21:45:00;102683.90999999999;;;3.24;100.0
22775;BME280;11554;51.106;3.684;2023-01-30T21:50:00;102690.03;;;3.13;100.0
22775;BME280;11554;51.106;3.684;2023-01-30T21:55:00;102696.48;;;3.02;100.0
22775;BME280;11554;51.106;3.684;2023-01-30T22:00:00;102693.29000000001;;;3.00;100.0
22775;BME280;11554;51.106;3.684;2023-01-30T22:05:00;102683.91999999998;;;3.03;100.0
22775;BME280;11554;51.106;3.684;2023-01-30T22:10:00;102682.41;;;2.97;100.0
22775;BME280;11554;51.106;3.684;2023-01-30T22:15:00;102685.54999999999;;;2.88;100.0
22775;BME280;11554;51.106;3.684;2023-01-30T22:20:00;102692.74;;;2.80;100.0
22775;BME280;11554;51.106;3.684;2023-01-30T22:25:00;102687.17;;;2.64;100.0
22775;BME280;11554;51.106;3.684;2023-01-30T22:30:00;102687.62;;;2.55;100.0
22775;BME280;11554;51.106;3.684;2023-01-30T22:35:00;102681.84000000001;;;2.51;100.0
22775;BME280;11554;51.106;3.684;2023-01-30T22:40:00;102685.61;;;2.47;100.0
22775;BME280;11554;51.106;3.684;2023-01-30T22:45:00;102687.3;;;2.39;100.0
22775;BME280;11554;51.106;3.684;2023-01-30T22:50:00;102678.86000000002;;;2.39;100.0
22775;BME280;11554;51.106;3.684;2023-01-30T22:55:00;102675.81999999999;;;2.33;100.0
22775;BME280;11554;51.106;3.684;2023-01-30T23:00:00;102668.31;;;2.26;100.0
22775;BME280;11554;51.106;3.684;2023-01-30T23:05:00;102662.67;;;2.21;100.0
22775;BME280;11554;51.106;3.684;2023-01-30T23:10:00;102655.79000000001;;;2.22;100.0
22775;BME280;11554;51.106;3.684;2023-01-30T23:15:00;102660.01000000001;;;2.20;100.0
22775;BME280;11554;51.106;3.684;2023-01-30T23:20:00;102651.56999999999;;;2.16;100.0
22775;BME280;11554;51.106;3.684;2023-01-30T23:25:00;102660.79;;;2.14;100.0
22775;BME280;11554;51.106;3.684;2023-01-30T23:30:00;102664.25;;;2.13;100.0
22775;BME280;11554;51.106;3.684;2023-01-30T23:35:00;102654.37;;;2.13;100.0
22775;BME280;11554;51.106;3.684;2023-01-30T23:40:00;102643.40999999999;;;2.16;100.0
22775;BME280;11554;51.106;3.684;2023-01-30T23:45:00;102637.70999999999;;;2.14;100.0
22775;BME280;11554;51.106;3.684;2023-01-30T23:50:00;102623.73;;;2.14;100.0
22775;BME280;11554;51.106;3.684;2023-01-30T23:55:00;102625.54000000001;;;2.08;100.0
